sensor_id;sensor_type;location;lat;lon;timestamp;temperature;humidity
20035;DHT22;10178;48.034;9.800;2024-02-15T00:00:52;7.80;99.90
20035;DHT22;10178;48.034;9.800;2024-02-15T00:03:18;7.70;99.90
20035;DHT22;10178;48.034;9.800;2024-02-15T00:05:44;7.60;99.90
20035;DHT22;10178;48.034;9.800;2024-02-15T00:08:11;7.50;99.90
20035;DHT22;10178;48.034;9.800;2024-02-15T00:10:37;7.40;99.90
20035;DHT22;10178;48.034;9.800;2024-02-15T00:13:03;7.40;99.90
20035;DHT22;10178;48.034;9.800;2024-02-15T00:15:30;7.30;99.90
20035;DHT22;10178;48.034;9.800;2024-02-15T00:17:56;7.30;99.90
20035;DHT22;10178;48.034;9.800;2024-02-15T00:20:21;7.20;99.90
20035;DHT22;10178;48.034;9.800;2024-02-15T00:22:47;7.40;99.90
20035;DHT22;10178;48.034;9.800;2024-02-15T00:25:13;7.40;99.90
20035;DHT22;10178;48.034;9.800;2024-02-15T00:27:39;7.40;99.90
20035;DHT22;10178;48.034;9.800;2024-02-15T00:30:05;7.40;99.90
20035;DHT22;10178;48.034;9.800;2024-02-15T00:32:35;7.40;99.90
20035;DHT22;10178;48.034;9.800;2024-02-15T00:35:02;7.30;99.90
20035;DHT22;10178;48.034;9.800;2024-02-15T00:37:31;7.20;99.90
20035;DHT22;10178;48.034;9.800;2024-02-15T00:39:57;7.10;99.90
20035;DHT22;10178;48.034;9.800;2024-02-15T00:42:22;6.90;99.90
20035;DHT22;10178;48.034;9.800;2024-02-15T00:44:48;6.90;99.90
20035;DHT22;10178;48.034;9.800;2024-02-15T00:47:14;6.90;99.90
20035;DHT22;10178;48.034;9.800;2024-02-15T00:49:39;7.00;99.90
20035;DHT22;10178;48.034;9.800;2024-02-15T00:52:05;7.00;99.90
20035;DHT22;10178;48.034;9.800;2024-02-15T00:54:31;6.90;99.90
20035;DHT22;10178;48.034;9.800;2024-02-15T00:56:57;7.00;99.90
20035;DHT22;10178;48.034;9.800;2024-02-15T00:59:22;7.40;99.90
20035;DHT22;10178;48.034;9.800;2024-02-15T01:01:48;7.80;99.90
20035;DHT22;10178;48.034;9.800;2024-02-15T01:04:14;8.00;99.90
20035;DHT22;10178;48.034;9.800;2024-02-15T01:06:39;8.20;99.90
20035;DHT22;10178;48.034;9.800;2024-02-15T01:09:05;8.30;99.90
20035;DHT22;10178;48.034;9.800;2024-02-15T01:11:31;8.40;99.90
20035;DHT22;10178;48.034;9.800;2024-02-15T01:14:03;8.50;99.90
20035;DHT22;10178;48.034;9.800;2024-02-15T01:16:29;8.60;99.90
20035;DHT22;10178;48.034;9.800;2024-02-15T01:18:54;8.60;99.90
20035;DHT22;10178;48.034;9.800;2024-02-15T01:26:29;8.30;99.90
20035;DHT22;10178;48.034;9.800;2024-02-15T01:28:55;7.80;99.90
20035;DHT22;10178;48.034;9.800;2024-02-15T01:31:21;7.60;99.90
20035;DHT22;10178;48.034;9.800;2024-02-15T01:33:48;7.40;99.90
20035;DHT22;10178;48.034;9.800;2024-02-15T01:36:17;7.10;99.90
20035;DHT22;10178;48.034;9.800;2024-02-15T01:38:44;7.00;99.90
20035;DHT22;10178;48.034;9.800;2024-02-15T01:41:10;7.10;99.90
20035;DHT22;10178;48.034;9.800;2024-02-15T01:43:36;7.10;99.90
20035;DHT22;10178;48.034;9.800;2024-02-15T01:46:08;7.00;99.90
20035;DHT22;10178;48.034;9.800;2024-02-15T01:48:36;6.90;99.90
20035;DHT22;10178;48.034;9.800;2024-02-15T01:51:02;6.90;99.90
20035;DHT22;10178;48.034;9.800;2024-02-15T01:53:29;7.00;99.90
20035;DHT22;10178;48.034;9.800;2024-02-15T01:55:56;7.00;99.90
20035;DHT22;10178;48.034;9.800;2024-02-15T01:58:24;6.80;99.90
20035;DHT22;10178;48.034;9.800;2024-02-15T02:00:50;6.70;99.90
20035;DHT22;10178;48.034;9.800;2024-02-15T02:03:17;6.60;99.90
20035;DHT22;10178;48.034;9.800;2024-02-15T02:05:45;6.40;99.90
20035;DHT22;10178;48.034;9.800;2024-02-15T02:08:11;6.30;99.90
20035;DHT22;10178;48.034;9.800;2024-02-15T02:10:37;6.20;99.90
20035;DHT22;10178;48.034;9.800;2024-02-15T02:13:03;6.20;99.90
20035;DHT22;10178;48.034;9.800;2024-02-15T02:15:29;6.50;99.90
20035;DHT22;10178;48.034;9.800;2024-02-15T02:17:57;6.40;99.90
20035;DHT22;10178;48.034;9.800;2024-02-15T02:20:27;6.40;99.90
20035;DHT22;10178;48.034;9.800;2024-02-15T02:23:13;6.40;99.90
20035;DHT22;10178;48.034;9.800;2024-02-15T02:25:39;6.40;99.90
20035;DHT22;10178;48.034;9.800;2024-02-15T02:28:08;6.20;99.90
20035;DHT22;10178;48.034;9.800;2024-02-15T02:30:34;6.00;99.90
20035;DHT22;10178;48.034;9.800;2024-02-15T02:33:00;6.20;99.90
20035;DHT22;10178;48.034;9.800;2024-02-15T02:35:27;6.80;99.90
20035;DHT22;10178;48.034;9.800;2024-02-15T02:37:56;7.30;99.90
20035;DHT22;10178;48.034;9.800;2024-02-15T02:40:21;7.60;99.90
20035;DHT22;10178;48.034;9.800;2024-02-15T02:42:54;7.80;99.90
20035;DHT22;10178;48.034;9.800;2024-02-15T02:45:25;7.90;99.90
20035;DHT22;10178;48.034;9.800;2024-02-15T02:47:51;8.00;99.90
20035;DHT22;10178;48.034;9.800;2024-02-15T02:50:18;8.00;99.90
20035;DHT22;10178;48.034;9.800;2024-02-15T02:52:44;7.70;99.90
20035;DHT22;10178;48.034;9.800;2024-02-15T02:55:10;7.20;99.90
20035;DHT22;10178;48.034;9.800;2024-02-15T02:57:37;6.50;99.90
20035;DHT22;10178;48.034;9.800;2024-02-15T03:00:07;6.50;99.90
20035;DHT22;10178;48.034;9.800;2024-02-15T03:02:36;6.60;99.90
20035;DHT22;10178;48.034;9.800;2024-02-15T03:05:06;7.10;99.90
20035;DHT22;10178;48.034;9.800;2024-02-15T03:07:34;7.20;99.90
20035;DHT22;10178;48.034;9.800;2024-02-15T03:10:01;7.50;99.90
20035;DHT22;10178;48.034;9.800;2024-02-15T03:12:37;7.70;99.90
20035;DHT22;10178;48.034;9.800;2024-02-15T03:15:04;7.90;99.90
20035;DHT22;10178;48.034;9.800;2024-02-15T03:17:30;8.00;99.90
20035;DHT22;10178;48.034;9.800;2024-02-15T03:19:57;8.00;99.90
20035;DHT22;10178;48.034;9.800;2024-02-15T03:22:23;8.00;99.90
20035;DHT22;10178;48.034;9.800;2024-02-15T03:24:50;8.00;99.90
20035;DHT22;10178;48.034;9.800;2024-02-15T03:27:16;8.00;99.90
20035;DHT22;10178;48.034;9.800;2024-02-15T03:29:42;8.00;99.90
20035;DHT22;10178;48.034;9.800;2024-02-15T03:32:08;8.00;99.90
20035;DHT22;10178;48.034;9.800;2024-02-15T03:34:36;8.00;99.90
20035;DHT22;10178;48.034;9.800;2024-02-15T03:37:02;8.00;99.90
20035;DHT22;10178;48.034;9.800;2024-02-15T03:39:29;8.00;99.90
20035;DHT22;10178;48.034;9.800;2024-02-15T03:41:55;7.80;99.90
20035;DHT22;10178;48.034;9.800;2024-02-15T03:44:22;7.70;99.90
20035;DHT22;10178;48.034;9.800;2024-02-15T03:46:51;7.40;99.90
20035;DHT22;10178;48.034;9.800;2024-02-15T03:49:20;7.30;99.90
20035;DHT22;10178;48.034;9.800;2024-02-15T03:51:47;6.70;99.90
20035;DHT22;10178;48.034;9.800;2024-02-15T03:54:13;6.80;99.90
20035;DHT22;10178;48.034;9.800;2024-02-15T03:56:49;7.10;99.90
20035;DHT22;10178;48.034;9.800;2024-02-15T03:59:18;7.40;99.90
20035;DHT22;10178;48.034;9.800;2024-02-15T04:01:47;7.50;99.90
20035;DHT22;10178;48.034;9.800;2024-02-15T04:04:13;7.70;99.90
20035;DHT22;10178;48.034;9.800;2024-02-15T04:06:39;7.70;99.90
20035;DHT22;10178;48.034;9.800;2024-02-15T04:09:05;7.60;99.90
20035;DHT22;10178;48.034;9.800;2024-02-15T04:11:32;7.70;99.90
20035;DHT22;10178;48.034;9.800;2024-02-15T04:13:59;7.70;99.90
20035;DHT22;10178;48.034;9.800;2024-02-15T04:16:24;7.70;99.90
20035;DHT22;10178;48.034;9.800;2024-02-15T04:18:51;7.80;99.90
20035;DHT22;10178;48.034;9.800;2024-02-15T04:21:17;7.80;99.90
20035;DHT22;10178;48.034;9.800;2024-02-15T04:23:45;7.70;99.90
20035;DHT22;10178;48.034;9.800;2024-02-15T04:26:11;7.70;99.90
20035;DHT22;10178;48.034;9.800;2024-02-15T04:28:39;7.70;99.90
20035;DHT22;10178;48.034;9.800;2024-02-15T04:31:05;7.60;99.90
20035;DHT22;10178;48.034;9.800;2024-02-15T04:33:34;7.70;99.90
20035;DHT22;10178;48.034;9.800;2024-02-15T04:36:00;7.60;99.90
20035;DHT22;10178;48.034;9.800;2024-02-15T04:38:28;7.60;99.90
20035;DHT22;10178;48.034;9.800;2024-02-15T04:40:54;7.60;99.90
20035;DHT22;10178;48.034;9.800;2024-02-15T04:43:20;7.60;99.90
20035;DHT22;10178;48.034;9.800;2024-02-15T04:45:45;7.50;99.90
20035;DHT22;10178;48.034;9.800;2024-02-15T04:48:11;7.50;99.90
20035;DHT22;10178;48.034;9.800;2024-02-15T04:50:39;7.50;99.90
20035;DHT22;10178;48.034;9.800;2024-02-15T04:53:08;7.50;99.90
20035;DHT22;10178;48.034;9.800;2024-02-15T04:55:34;7.50;99.90
20035;DHT22;10178;48.034;9.800;2024-02-15T04:58:01;7.30;99.90
20035;DHT22;10178;48.034;9.800;2024-02-15T05:00:27;7.10;99.90
20035;DHT22;10178;48.034;9.800;2024-02-15T05:02:53;7.10;99.90
20035;DHT22;10178;48.034;9.800;2024-02-15T05:05:20;7.10;99.90
20035;DHT22;10178;48.034;9.800;2024-02-15T05:07:45;7.10;99.90
20035;DHT22;10178;48.034;9.800;2024-02-15T05:10:14;7.10;99.90
20035;DHT22;10178;48.034;9.800;2024-02-15T05:12:41;7.10;99.90
20035;DHT22;10178;48.034;9.800;2024-02-15T05:15:09;7.10;99.90
20035;DHT22;10178;48.034;9.800;2024-02-15T05:17:40;7.10;99.90
20035;DHT22;10178;48.034;9.800;2024-02-15T05:20:10;7.10;99.90
20035;DHT22;10178;48.034;9.800;2024-02-15T05:22:38;7.10;99.90
20035;DHT22;10178;48.034;9.800;2024-02-15T05:25:05;7.10;99.90
20035;DHT22;10178;48.034;9.800;2024-02-15T05:27:31;7.00;99.90
20035;DHT22;10178;48.034;9.800;2024-02-15T05:29:57;6.90;99.90
20035;DHT22;10178;48.034;9.800;2024-02-15T05:32:22;6.90;99.90
20035;DHT22;10178;48.034;9.800;2024-02-15T05:34:48;6.70;99.90
20035;DHT22;10178;48.034;9.800;2024-02-15T05:37:14;6.50;99.90
20035;DHT22;10178;48.034;9.800;2024-02-15T05:39:41;6.40;99.90
20035;DHT22;10178;48.034;9.800;2024-02-15T05:42:07;6.30;99.90
20035;DHT22;10178;48.034;9.800;2024-02-15T05:44:33;5.80;99.90
20035;DHT22;10178;48.034;9.800;2024-02-15T05:47:00;5.30;99.90
20035;DHT22;10178;48.034;9.800;2024-02-15T05:49:25;5.10;99.90
20035;DHT22;10178;48.034;9.800;2024-02-15T05:51:51;5.50;99.90
20035;DHT22;10178;48.034;9.800;2024-02-15T05:54:19;6.00;99.90
20035;DHT22;10178;48.034;9.800;2024-02-15T05:56:44;6.30;99.90
20035;DHT22;10178;48.034;9.800;2024-02-15T05:59:10;6.50;99.90
20035;DHT22;10178;48.034;9.800;2024-02-15T06:01:39;6.70;99.90
20035;DHT22;10178;48.034;9.800;2024-02-15T06:04:06;6.70;99.90
20035;DHT22;10178;48.034;9.800;2024-02-15T06:06:34;6.70;99.90
20035;DHT22;10178;48.034;9.800;2024-02-15T06:09:00;6.70;99.90
20035;DHT22;10178;48.034;9.800;2024-02-15T06:11:26;6.80;99.90
20035;DHT22;10178;48.034;9.800;2024-02-15T06:13:53;6.70;99.90
20035;DHT22;10178;48.034;9.800;2024-02-15T06:16:18;6.70;99.90
20035;DHT22;10178;48.034;9.800;2024-02-15T06:18:44;6.70;99.90
20035;DHT22;10178;48.034;9.800;2024-02-15T06:21:09;6.70;99.90
20035;DHT22;10178;48.034;9.800;2024-02-15T06:23:35;6.70;99.90
20035;DHT22;10178;48.034;9.800;2024-02-15T06:26:01;6.70;99.90
20035;DHT22;10178;48.034;9.800;2024-02-15T06:28:28;6.70;99.90
20035;DHT22;10178;48.034;9.800;2024-02-15T06:31:13;6.70;99.90
20035;DHT22;10178;48.034;9.800;2024-02-15T06:33:58;6.70;99.90
20035;DHT22;10178;48.034;9.800;2024-02-15T06:36:50;6.60;99.90
20035;DHT22;10178;48.034;9.800;2024-02-15T06:39:34;6.60;99.90
20035;DHT22;10178;48.034;9.800;2024-02-15T06:42:11;6.60;99.90
20035;DHT22;10178;48.034;9.800;2024-02-15T06:44:37;6.60;99.90
20035;DHT22;10178;48.034;9.800;2024-02-15T06:47:06;6.50;99.90
20035;DHT22;10178;48.034;9.800;2024-02-15T06:49:32;6.20;99.90
20035;DHT22;10178;48.034;9.800;2024-02-15T06:51:58;6.30;99.90
20035;DHT22;10178;48.034;9.800;2024-02-15T06:54:27;6.30;99.90
20035;DHT22;10178;48.034;9.800;2024-02-15T06:56:53;6.50;99.90
20035;DHT22;10178;48.034;9.800;2024-02-15T06:59:20;6.50;99.90
20035;DHT22;10178;48.034;9.800;2024-02-15T07:01:49;6.50;99.90
20035;DHT22;10178;48.034;9.800;2024-02-15T07:04:14;6.50;99.90
20035;DHT22;10178;48.034;9.800;2024-02-15T07:06:40;6.50;99.90
20035;DHT22;10178;48.034;9.800;2024-02-15T07:09:10;6.60;99.90
20035;DHT22;10178;48.034;9.800;2024-02-15T07:11:36;6.50;99.90
20035;DHT22;10178;48.034;9.800;2024-02-15T07:14:02;6.40;99.90
20035;DHT22;10178;48.034;9.800;2024-02-15T07:16:30;6.40;99.90
20035;DHT22;10178;48.034;9.800;2024-02-15T07:18:55;6.50;99.90
20035;DHT22;10178;48.034;9.800;2024-02-15T07:21:21;6.40;99.90
20035;DHT22;10178;48.034;9.800;2024-02-15T07:23:52;6.40;99.90
20035;DHT22;10178;48.034;9.800;2024-02-15T07:26:23;6.40;99.90
20035;DHT22;10178;48.034;9.800;2024-02-15T07:28:53;6.40;99.90
20035;DHT22;10178;48.034;9.800;2024-02-15T07:31:20;6.40;99.90
20035;DHT22;10178;48.034;9.800;2024-02-15T07:33:53;5.30;99.90
20035;DHT22;10178;48.034;9.800;2024-02-15T07:36:19;5.10;99.90
20035;DHT22;10178;48.034;9.800;2024-02-15T07:38:47;5.40;99.90
20035;DHT22;10178;48.034;9.800;2024-02-15T07:41:14;5.10;99.90
20035;DHT22;10178;48.034;9.800;2024-02-15T07:43:40;5.20;99.90
20035;DHT22;10178;48.034;9.800;2024-02-15T07:46:06;5.50;99.90
20035;DHT22;10178;48.034;9.800;2024-02-15T07:48:32;5.70;99.90
20035;DHT22;10178;48.034;9.800;2024-02-15T07:50:57;5.30;99.90
20035;DHT22;10178;48.034;9.800;2024-02-15T07:53:24;5.30;99.90
20035;DHT22;10178;48.034;9.800;2024-02-15T07:55:50;5.40;99.90
20035;DHT22;10178;48.034;9.800;2024-02-15T07:58:16;5.40;99.90
20035;DHT22;10178;48.034;9.800;2024-02-15T08:00:44;5.10;99.90
20035;DHT22;10178;48.034;9.800;2024-02-15T08:03:10;4.70;99.90
20035;DHT22;10178;48.034;9.800;2024-02-15T08:05:35;4.50;99.90
20035;DHT22;10178;48.034;9.800;2024-02-15T08:08:02;4.30;99.90
20035;DHT22;10178;48.034;9.800;2024-02-15T08:10:29;4.60;99.90
20035;DHT22;10178;48.034;9.800;2024-02-15T08:12:55;4.90;99.90
20035;DHT22;10178;48.034;9.800;2024-02-15T08:15:23;5.10;99.90
20035;DHT22;10178;48.034;9.800;2024-02-15T08:17:49;4.70;99.90
20035;DHT22;10178;48.034;9.800;2024-02-15T08:20:15;4.70;99.90
20035;DHT22;10178;48.034;9.800;2024-02-15T08:22:46;5.40;99.90
20035;DHT22;10178;48.034;9.800;2024-02-15T08:25:13;5.90;99.90
20035;DHT22;10178;48.034;9.800;2024-02-15T08:27:41;6.00;99.90
20035;DHT22;10178;48.034;9.800;2024-02-15T08:30:10;5.80;99.90
20035;DHT22;10178;48.034;9.800;2024-02-15T08:32:37;5.80;99.90
20035;DHT22;10178;48.034;9.800;2024-02-15T08:35:03;5.90;99.90
20035;DHT22;10178;48.034;9.800;2024-02-15T08:37:30;6.00;99.90
20035;DHT22;10178;48.034;9.800;2024-02-15T08:39:57;6.10;99.90
20035;DHT22;10178;48.034;9.800;2024-02-15T08:42:23;6.20;99.90
20035;DHT22;10178;48.034;9.800;2024-02-15T08:44:50;6.10;99.90
20035;DHT22;10178;48.034;9.800;2024-02-15T08:47:15;5.90;99.90
20035;DHT22;10178;48.034;9.800;2024-02-15T08:49:41;5.60;99.90
20035;DHT22;10178;48.034;9.800;2024-02-15T08:52:06;5.50;99.90
20035;DHT22;10178;48.034;9.800;2024-02-15T08:54:33;5.60;99.90
20035;DHT22;10178;48.034;9.800;2024-02-15T08:56:59;5.80;99.90
20035;DHT22;10178;48.034;9.800;2024-02-15T08:59:26;6.00;99.90
20035;DHT22;10178;48.034;9.800;2024-02-15T09:01:54;6.30;99.90
20035;DHT22;10178;48.034;9.800;2024-02-15T09:04:21;6.30;99.90
20035;DHT22;10178;48.034;9.800;2024-02-15T09:06:48;6.40;99.90
20035;DHT22;10178;48.034;9.800;2024-02-15T09:09:14;6.40;99.90
20035;DHT22;10178;48.034;9.800;2024-02-15T09:11:40;6.40;99.90
20035;DHT22;10178;48.034;9.800;2024-02-15T09:14:06;6.30;99.90
20035;DHT22;10178;48.034;9.800;2024-02-15T09:16:31;6.40;99.90
20035;DHT22;10178;48.034;9.800;2024-02-15T09:18:59;6.50;99.90
20035;DHT22;10178;48.034;9.800;2024-02-15T09:21:26;6.60;99.90
20035;DHT22;10178;48.034;9.800;2024-02-15T09:23:53;6.70;99.90
20035;DHT22;10178;48.034;9.800;2024-02-15T09:26:19;6.80;99.90
20035;DHT22;10178;48.034;9.800;2024-02-15T09:28:45;6.90;99.90
20035;DHT22;10178;48.034;9.800;2024-02-15T09:31:14;7.00;99.90
20035;DHT22;10178;48.034;9.800;2024-02-15T09:33:40;7.10;99.90
20035;DHT22;10178;48.034;9.800;2024-02-15T09:36:06;7.20;99.90
20035;DHT22;10178;48.034;9.800;2024-02-15T09:38:33;7.30;99.90
20035;DHT22;10178;48.034;9.800;2024-02-15T09:40:59;7.60;99.90
20035;DHT22;10178;48.034;9.800;2024-02-15T09:43:24;7.80;99.90
20035;DHT22;10178;48.034;9.800;2024-02-15T09:48:56;8.10;99.90
20035;DHT22;10178;48.034;9.800;2024-02-15T09:51:29;8.40;99.90
20035;DHT22;10178;48.034;9.800;2024-02-15T09:53:57;8.70;99.90
20035;DHT22;10178;48.034;9.800;2024-02-15T09:56:24;9.00;99.90
20035;DHT22;10178;48.034;9.800;2024-02-15T09:58:51;9.30;99.90
20035;DHT22;10178;48.034;9.800;2024-02-15T10:01:21;9.70;99.90
20035;DHT22;10178;48.034;9.800;2024-02-15T10:03:49;10.00;99.90
20035;DHT22;10178;48.034;9.800;2024-02-15T10:06:19;10.40;99.90
20035;DHT22;10178;48.034;9.800;2024-02-15T10:08:45;10.70;99.90
20035;DHT22;10178;48.034;9.800;2024-02-15T10:11:12;10.90;99.90
20035;DHT22;10178;48.034;9.800;2024-02-15T10:13:38;11.20;99.90
20035;DHT22;10178;48.034;9.800;2024-02-15T10:16:17;11.40;99.90
20035;DHT22;10178;48.034;9.800;2024-02-15T10:18:46;10.90;99.90
20035;DHT22;10178;48.034;9.800;2024-02-15T10:21:26;11.10;99.90
20035;DHT22;10178;48.034;9.800;2024-02-15T10:24:13;11.60;99.90
20035;DHT22;10178;48.034;9.800;2024-02-15T10:26:39;12.00;99.90
20035;DHT22;10178;48.034;9.800;2024-02-15T10:29:09;12.50;99.90
20035;DHT22;10178;48.034;9.800;2024-02-15T10:31:39;12.80;99.90
20035;DHT22;10178;48.034;9.800;2024-02-15T10:34:07;12.80;99.90
20035;DHT22;10178;48.034;9.800;2024-02-15T10:36:34;12.90;99.90
20035;DHT22;10178;48.034;9.800;2024-02-15T10:39:13;13.00;99.90
20035;DHT22;10178;48.034;9.800;2024-02-15T10:41:44;13.20;99.90
20035;DHT22;10178;48.034;9.800;2024-02-15T10:44:16;13.60;99.90
20035;DHT22;10178;48.034;9.800;2024-02-15T10:46:45;13.90;99.90
20035;DHT22;10178;48.034;9.800;2024-02-15T10:49:11;14.10;99.90
20035;DHT22;10178;48.034;9.800;2024-02-15T10:51:40;14.10;99.90
20035;DHT22;10178;48.034;9.800;2024-02-15T10:54:12;14.30;99.90
20035;DHT22;10178;48.034;9.800;2024-02-15T10:56:43;14.50;99.90
20035;DHT22;10178;48.034;9.800;2024-02-15T10:59:19;14.50;99.90
20035;DHT22;10178;48.034;9.800;2024-02-15T11:01:49;14.40;99.90
20035;DHT22;10178;48.034;9.800;2024-02-15T11:04:21;14.50;99.90
20035;DHT22;10178;48.034;9.800;2024-02-15T11:06:58;14.50;99.90
20035;DHT22;10178;48.034;9.800;2024-02-15T11:09:25;14.50;99.90
20035;DHT22;10178;48.034;9.800;2024-02-15T11:11:55;14.70;99.90
20035;DHT22;10178;48.034;9.800;2024-02-15T11:14:25;14.70;99.90
20035;DHT22;10178;48.034;9.800;2024-02-15T11:16:51;14.60;99.90
20035;DHT22;10178;48.034;9.800;2024-02-15T11:22:04;14.50;99.90
20035;DHT22;10178;48.034;9.800;2024-02-15T11:24:34;14.60;99.90
20035;DHT22;10178;48.034;9.800;2024-02-15T11:27:05;14.70;99.90
20035;DHT22;10178;48.034;9.800;2024-02-15T11:30:00;14.80;99.90
20035;DHT22;10178;48.034;9.800;2024-02-15T11:35:05;14.90;99.90
20035;DHT22;10178;48.034;9.800;2024-02-15T11:43:09;15.00;99.90
20035;DHT22;10178;48.034;9.800;2024-02-15T11:45:36;14.80;99.90
20035;DHT22;10178;48.034;9.800;2024-02-15T11:48:13;14.70;99.90
20035;DHT22;10178;48.034;9.800;2024-02-15T11:50:39;14.70;99.90
20035;DHT22;10178;48.034;9.800;2024-02-15T11:53:06;14.80;99.90
20035;DHT22;10178;48.034;9.800;2024-02-15T11:55:36;14.60;99.90
20035;DHT22;10178;48.034;9.800;2024-02-15T11:58:04;14.10;99.90
20035;DHT22;10178;48.034;9.800;2024-02-15T12:00:37;13.50;99.90
20035;DHT22;10178;48.034;9.800;2024-02-15T12:03:22;13.10;99.90
20035;DHT22;10178;48.034;9.800;2024-02-15T12:06:06;12.90;99.90
20035;DHT22;10178;48.034;9.800;2024-02-15T12:08:52;13.50;99.90
20035;DHT22;10178;48.034;9.800;2024-02-15T12:11:37;14.10;99.90
20035;DHT22;10178;48.034;9.800;2024-02-15T12:14:22;14.40;99.90
20035;DHT22;10178;48.034;9.800;2024-02-15T12:17:08;14.40;99.90
20035;DHT22;10178;48.034;9.800;2024-02-15T12:19:54;14.50;99.90
20035;DHT22;10178;48.034;9.800;2024-02-15T12:22:51;14.60;99.90
20035;DHT22;10178;48.034;9.800;2024-02-15T12:25:18;14.50;99.90
20035;DHT22;10178;48.034;9.800;2024-02-15T12:27:52;14.10;99.90
20035;DHT22;10178;48.034;9.800;2024-02-15T12:30:18;13.80;99.90
20035;DHT22;10178;48.034;9.800;2024-02-15T12:32:47;13.50;99.90
20035;DHT22;10178;48.034;9.800;2024-02-15T12:35:15;13.30;99.90
20035;DHT22;10178;48.034;9.800;2024-02-15T12:37:48;12.90;99.90
20035;DHT22;10178;48.034;9.800;2024-02-15T12:40:20;12.60;99.90
20035;DHT22;10178;48.034;9.800;2024-02-15T12:42:47;12.60;99.90
20035;DHT22;10178;48.034;9.800;2024-02-15T12:45:17;12.70;99.90
20035;DHT22;10178;48.034;9.800;2024-02-15T12:47:52;12.50;99.90
20035;DHT22;10178;48.034;9.800;2024-02-15T12:50:23;12.50;99.90
20035;DHT22;10178;48.034;9.800;2024-02-15T12:52:50;12.70;99.90
20035;DHT22;10178;48.034;9.800;2024-02-15T12:55:21;12.80;99.90
20035;DHT22;10178;48.034;9.800;2024-02-15T12:57:51;13.10;99.90
20035;DHT22;10178;48.034;9.800;2024-02-15T13:00:26;13.50;99.90
20035;DHT22;10178;48.034;9.800;2024-02-15T13:02:55;13.60;99.90
20035;DHT22;10178;48.034;9.800;2024-02-15T13:05:22;13.40;99.90
20035;DHT22;10178;48.034;9.800;2024-02-15T13:07:49;13.20;99.90
20035;DHT22;10178;48.034;9.800;2024-02-15T13:10:16;13.30;99.90
20035;DHT22;10178;48.034;9.800;2024-02-15T13:12:42;13.60;99.90
20035;DHT22;10178;48.034;9.800;2024-02-15T13:15:12;13.70;99.90
20035;DHT22;10178;48.034;9.800;2024-02-15T13:17:49;13.60;99.90
20035;DHT22;10178;48.034;9.800;2024-02-15T13:20:17;13.60;99.90
20035;DHT22;10178;48.034;9.800;2024-02-15T13:22:46;13.50;99.90
20035;DHT22;10178;48.034;9.800;2024-02-15T13:25:15;13.60;99.90
20035;DHT22;10178;48.034;9.800;2024-02-15T13:27:46;13.80;99.90
20035;DHT22;10178;48.034;9.800;2024-02-15T13:30:13;13.90;99.90
20035;DHT22;10178;48.034;9.800;2024-02-15T13:32:39;14.00;99.90
20035;DHT22;10178;48.034;9.800;2024-02-15T13:35:07;13.90;99.90
20035;DHT22;10178;48.034;9.800;2024-02-15T13:37:43;13.90;99.90
20035;DHT22;10178;48.034;9.800;2024-02-15T13:40:12;13.80;99.90
20035;DHT22;10178;48.034;9.800;2024-02-15T13:42:51;13.80;99.90
20035;DHT22;10178;48.034;9.800;2024-02-15T13:47:57;13.80;99.90
20035;DHT22;10178;48.034;9.800;2024-02-15T13:50:24;13.80;99.90
20035;DHT22;10178;48.034;9.800;2024-02-15T13:52:50;13.80;99.90
20035;DHT22;10178;48.034;9.800;2024-02-15T13:55:17;13.90;99.90
20035;DHT22;10178;48.034;9.800;2024-02-15T13:57:45;13.90;99.90
20035;DHT22;10178;48.034;9.800;2024-02-15T14:00:15;13.90;99.90
20035;DHT22;10178;48.034;9.800;2024-02-15T14:02:54;13.60;99.90
20035;DHT22;10178;48.034;9.800;2024-02-15T14:05:24;13.50;99.90
20035;DHT22;10178;48.034;9.800;2024-02-15T14:07:55;13.60;99.90
20035;DHT22;10178;48.034;9.800;2024-02-15T14:10:21;13.60;99.90
20035;DHT22;10178;48.034;9.800;2024-02-15T14:12:48;13.40;99.90
20035;DHT22;10178;48.034;9.800;2024-02-15T14:15:15;13.30;99.90
20035;DHT22;10178;48.034;9.800;2024-02-15T14:17:42;13.30;99.90
20035;DHT22;10178;48.034;9.800;2024-02-15T14:20:10;13.30;99.90
20035;DHT22;10178;48.034;9.800;2024-02-15T14:22:40;13.40;99.90
20035;DHT22;10178;48.034;9.800;2024-02-15T14:25:06;13.40;99.90
20035;DHT22;10178;48.034;9.800;2024-02-15T14:27:32;13.50;99.90
20035;DHT22;10178;48.034;9.800;2024-02-15T14:29:58;13.60;99.90
20035;DHT22;10178;48.034;9.800;2024-02-15T14:32:45;13.70;99.90
20035;DHT22;10178;48.034;9.800;2024-02-15T14:35:33;13.80;99.90
20035;DHT22;10178;48.034;9.800;2024-02-15T14:38:06;13.90;99.90
20035;DHT22;10178;48.034;9.800;2024-02-15T14:40:41;14.00;99.90
20035;DHT22;10178;48.034;9.800;2024-02-15T14:43:08;13.90;99.90
20035;DHT22;10178;48.034;9.800;2024-02-15T14:45:38;13.70;99.90
20035;DHT22;10178;48.034;9.800;2024-02-15T14:48:07;13.50;99.90
20035;DHT22;10178;48.034;9.800;2024-02-15T14:50:38;13.40;99.90
20035;DHT22;10178;48.034;9.800;2024-02-15T14:53:04;13.50;99.90
20035;DHT22;10178;48.034;9.800;2024-02-15T14:55:30;13.50;99.90
20035;DHT22;10178;48.034;9.800;2024-02-15T14:57:57;13.60;99.90
20035;DHT22;10178;48.034;9.800;2024-02-15T15:00:23;13.70;99.90
20035;DHT22;10178;48.034;9.800;2024-02-15T15:02:50;13.90;99.90
20035;DHT22;10178;48.034;9.800;2024-02-15T15:05:16;13.90;99.90
20035;DHT22;10178;48.034;9.800;2024-02-15T15:08:01;13.90;99.90
20035;DHT22;10178;48.034;9.800;2024-02-15T15:10:45;14.00;99.90
20035;DHT22;10178;48.034;9.800;2024-02-15T15:13:31;13.90;99.90
20035;DHT22;10178;48.034;9.800;2024-02-15T15:15:58;13.90;99.90
20035;DHT22;10178;48.034;9.800;2024-02-15T15:18:24;13.80;99.90
20035;DHT22;10178;48.034;9.800;2024-02-15T15:20:49;13.90;99.90
20035;DHT22;10178;48.034;9.800;2024-02-15T15:23:16;13.80;99.90
20035;DHT22;10178;48.034;9.800;2024-02-15T15:25:45;13.70;99.90
20035;DHT22;10178;48.034;9.800;2024-02-15T15:28:11;13.70;99.90
20035;DHT22;10178;48.034;9.800;2024-02-15T15:30:41;13.60;99.90
20035;DHT22;10178;48.034;9.800;2024-02-15T15:33:09;13.50;99.90
20035;DHT22;10178;48.034;9.800;2024-02-15T15:35:34;13.40;99.90
20035;DHT22;10178;48.034;9.800;2024-02-15T15:38:02;13.40;99.90
20035;DHT22;10178;48.034;9.800;2024-02-15T15:40:27;13.30;99.90
20035;DHT22;10178;48.034;9.800;2024-02-15T15:42:54;13.20;99.90
20035;DHT22;10178;48.034;9.800;2024-02-15T15:45:20;13.10;99.90
20035;DHT22;10178;48.034;9.800;2024-02-15T15:47:47;13.20;99.90
20035;DHT22;10178;48.034;9.800;2024-02-15T15:50:12;13.20;99.90
20035;DHT22;10178;48.034;9.800;2024-02-15T15:52:38;13.20;99.90
20035;DHT22;10178;48.034;9.800;2024-02-15T15:55:04;13.10;99.90
20035;DHT22;10178;48.034;9.800;2024-02-15T15:57:39;13.00;99.90
20035;DHT22;10178;48.034;9.800;2024-02-15T16:00:09;12.90;99.90
20035;DHT22;10178;48.034;9.800;2024-02-15T16:02:39;12.80;99.90
20035;DHT22;10178;48.034;9.800;2024-02-15T16:05:06;12.70;99.90
20035;DHT22;10178;48.034;9.800;2024-02-15T16:07:32;12.60;99.90
20035;DHT22;10178;48.034;9.800;2024-02-15T16:09:58;12.50;99.90